Time;durP1;ratioP1;P1;durP2;ratioP2;P2;SDS_P1;SDS_P2;PMS_P1;PMS_P2;Temp;Humidity;BMP_temperature;BMP_pressure;BME280_temperature;BME280_humidity;BME280_pressure;Samples;Min_cycle;Max_cycle;Signal;HPM_P1;HPM_P2
2023/12/14 00:01:48;;;;;;;3.70;3.50;;;;;;;;;;4923494;29;20304;-86
2023/12/14 00:04:16;;;;;;;3.37;3.17;;;;;;;;;;4922748;28;20207;-86
2023/12/14 00:06:41;;;;;;;5.30;3.77;;;;;;;;;;4917528;29;20587;-84
2023/12/14 00:09:10;;;;;;;5.20;3.93;;;;;;;;;;4910201;28;20224;-85
2023/12/14 00:11:41;;;;;;;4.27;3.87;;;;;;;;;;4916035;29;20229;-83
2023/12/14 00:14:08;;;;;;;4.40;4.00;;;;;;;;;;4915187;28;20235;-88
2023/12/14 00:16:36;;;;;;;5.87;3.73;;;;;;;;;;4906782;29;20215;-85
2023/12/14 00:19:04;;;;;;;3.97;3.67;;;;;;;;;;4931827;28;20225;-87
2023/12/14 00:21:30;;;;;;;4.37;3.83;;;;;;;;;;4911634;29;20322;-83
2023/12/14 00:23:55;;;;;;;3.90;3.50;;;;;;;;;;4914965;29;20285;-84
2023/12/14 00:26:21;;;;;;;4.23;3.93;;;;;;;;;;4923914;28;20218;-84
2023/12/14 00:28:49;;;;;;;4.33;3.93;;;;;;;;;;4920020;29;20325;-83
2023/12/14 00:31:17;;;;;;;3.90;3.30;;;;;;;;;;4921128;28;20238;-87
2023/12/14 00:33:45;;;;;;;3.90;3.60;;;;;;;;;;4911118;29;20234;-84
2023/12/14 00:36:19;;;;;;;4.30;3.90;;;;;;;;;;4920372;28;20243;-84
2023/12/14 00:38:47;;;;;;;3.40;3.10;;;;;;;;;;4922605;29;20306;-84
2023/12/14 00:41:18;;;;;;;4.00;3.70;;;;;;;;;;4923130;28;20223;-82
2023/12/14 00:43:46;;;;;;;4.27;3.67;;;;;;;;;;4922836;29;20248;-84
2023/12/14 00:46:11;;;;;;;4.00;3.70;;;;;;;;;;4926052;28;20860;-84
2023/12/14 00:48:39;;;;;;;3.70;3.40;;;;;;;;;;4905109;29;20234;-86
2023/12/14 00:51:09;;;;;;;3.63;3.17;;;;;;;;;;4935200;28;20230;-84
2023/12/14 00:53:37;;;;;;;3.83;3.43;;;;;;;;;;4904252;29;20740;-85
2023/12/14 00:56:08;;;;;;;3.73;3.40;;;;;;;;;;4906302;28;20218;-84
2023/12/14 00:58:33;;;;;;;3.87;3.57;;;;;;;;;;4905732;29;20230;-84
2023/12/14 01:01:01;;;;;;;4.20;3.80;;;;;;;;;;4916999;28;20223;-84
2023/12/14 01:03:32;;;;;;;5.30;3.70;;;;;;;;;;4928275;28;20242;-84
2023/12/14 01:05:57;;;;;;;4.50;4.10;;;;;;;;;;4932652;28;20231;-86
2023/12/14 01:08:25;;;;;;;3.90;3.60;;;;;;;;;;4935336;28;20230;-85
2023/12/14 01:10:51;;;;;;;4.43;4.03;;;;;;;;;;4917142;29;20599;-86
2023/12/14 01:13:20;;;;;;;4.67;4.20;;;;;;;;;;4911199;28;20256;-85
2023/12/14 01:15:48;;;;;;;4.67;4.00;;;;;;;;;;4921304;29;20262;-85
2023/12/14 01:18:14;;;;;;;4.33;3.93;;;;;;;;;;4919942;28;20227;-85
2023/12/14 01:20:42;;;;;;;4.43;3.93;;;;;;;;;;4920559;29;20738;-86
2023/12/14 01:23:10;;;;;;;4.37;3.97;;;;;;;;;;4916659;28;20228;-85
2023/12/14 01:25:36;;;;;;;4.43;4.03;;;;;;;;;;4934095;28;20301;-86
2023/12/14 01:28:04;;;;;;;4.30;4.00;;;;;;;;;;4916399;28;20223;-85
2023/12/14 01:30:32;;;;;;;4.53;4.13;;;;;;;;;;4969804;28;20307;-84
2023/12/14 01:32:59;;;;;;;5.50;5.00;;;;;;;;;;4917485;29;21252;-85
2023/12/14 01:35:29;;;;;;;4.83;4.43;;;;;;;;;;4927914;28;20206;-84
2023/12/14 01:37:55;;;;;;;5.13;4.47;;;;;;;;;;4932823;28;20233;-85
2023/12/14 01:40:23;;;;;;;4.63;4.23;;;;;;;;;;4946542;28;20234;-85
2023/12/14 01:42:48;;;;;;;4.70;4.10;;;;;;;;;;4922264;29;20258;-85
2023/12/14 01:45:16;;;;;;;4.10;3.80;;;;;;;;;;4919898;28;20230;-83
2023/12/14 01:47:45;;;;;;;4.30;4.00;;;;;;;;;;4907477;28;20286;-84
2023/12/14 01:50:11;;;;;;;4.40;4.00;;;;;;;;;;4918019;28;20312;-86
2023/12/14 01:52:38;;;;;;;4.17;3.77;;;;;;;;;;4917139;29;20219;-86
2023/12/14 01:55:07;;;;;;;4.63;4.10;;;;;;;;;;4914172;28;20219;-83
2023/12/14 01:57:32;;;;;;;5.03;4.63;;;;;;;;;;4919210;29;20216;-85
2023/12/14 02:00:00;;;;;;;3.70;3.40;;;;;;;;;;4918090;29;20272;-87
2023/12/14 02:02:30;;;;;;;3.83;3.53;;;;;;;;;;4935791;28;20260;-86
2023/12/14 02:04:55;;;;;;;4.40;4.00;;;;;;;;;;4938124;28;20286;-84
2023/12/14 02:07:21;;;;;;;3.90;3.60;;;;;;;;;;4919017;28;20253;-84
2023/12/14 02:09:50;;;;;;;4.30;3.90;;;;;;;;;;4902398;29;20692;-87
2023/12/14 02:12:15;;;;;;;5.03;4.53;;;;;;;;;;4916831;28;20235;-83
2023/12/14 02:14:43;;;;;;;4.70;4.30;;;;;;;;;;4918544;29;20222;-85
2023/12/14 02:17:11;;;;;;;4.50;4.10;;;;;;;;;;4919111;28;20231;-84
2023/12/14 02:19:39;;;;;;;3.90;3.60;;;;;;;;;;4911344;29;20219;-84
2023/12/14 02:22:08;;;;;;;4.70;4.27;;;;;;;;;;4933079;28;20286;-83
2023/12/14 02:24:33;;;;;;;4.07;3.77;;;;;;;;;;4950321;28;20215;-86
2023/12/14 02:26:59;;;;;;;4.53;4.10;;;;;;;;;;4929034;29;20756;-85
2023/12/14 02:29:27;;;;;;;5.00;3.57;;;;;;;;;;4911708;28;20561;-87
2023/12/14 02:31:53;;;;;;;4.83;3.73;;;;;;;;;;4913878;29;20234;-83
2023/12/14 02:34:24;;;;;;;4.40;3.97;;;;;;;;;;4935892;28;20207;-85
2023/12/14 02:36:52;;;;;;;4.43;4.13;;;;;;;;;;4938939;29;20214;-83
2023/12/14 02:39:18;;;;;;;4.30;4.00;;;;;;;;;;4954391;28;20226;-83
2023/12/14 02:41:46;;;;;;;4.37;3.97;;;;;;;;;;4928346;29;20208;-84
2023/12/14 02:44:11;;;;;;;3.97;3.67;;;;;;;;;;4924675;28;20220;-86
2023/12/14 02:46:39;;;;;;;4.50;4.10;;;;;;;;;;4942563;29;20225;-85
2023/12/14 02:49:04;;;;;;;5.00;3.70;;;;;;;;;;4920636;28;20301;-86
2023/12/14 02:51:30;;;;;;;4.27;3.60;;;;;;;;;;4922966;28;20230;-86
2023/12/14 02:53:57;;;;;;;4.47;4.07;;;;;;;;;;4906775;29;20238;-86
2023/12/14 02:56:25;;;;;;;4.70;4.17;;;;;;;;;;4926499;28;20274;-88
2023/12/14 02:58:53;;;;;;;5.33;4.20;;;;;;;;;;4923959;28;20207;-86
2023/12/14 03:01:23;;;;;;;5.17;3.57;;;;;;;;;;4924611;28;20222;-85
2023/12/14 03:03:48;;;;;;;4.17;3.47;;;;;;;;;;4928892;29;20261;-85
2023/12/14 03:06:14;;;;;;;4.10;3.70;;;;;;;;;;4905782;28;20220;-85
2023/12/14 03:08:39;;;;;;;3.70;3.40;;;;;;;;;;4923410;29;20223;-86
2023/12/14 03:11:05;;;;;;;3.97;3.43;;;;;;;;;;4937899;28;20673;-86
2023/12/14 03:13:33;;;;;;;5.37;3.60;;;;;;;;;;4925698;28;20223;-86
2023/12/14 03:16:01;;;;;;;3.33;3.03;;;;;;;;;;4938742;28;20226;-84
2023/12/14 03:18:29;;;;;;;7.83;3.50;;;;;;;;;;4923700;28;20585;-86
2023/12/14 03:20:55;;;;;;;3.60;3.30;;;;;;;;;;4906889;29;20219;-84
2023/12/14 03:23:22;;;;;;;4.90;3.40;;;;;;;;;;4938513;28;20243;-85
2023/12/14 03:25:50;;;;;;;3.77;3.47;;;;;;;;;;4908292;29;20237;-85
2023/12/14 03:28:19;;;;;;;3.77;3.47;;;;;;;;;;4922424;28;20222;-86
2023/12/14 03:30:46;;;;;;;3.60;3.17;;;;;;;;;;4932459;29;20684;-83
2023/12/14 03:33:14;;;;;;;4.07;3.30;;;;;;;;;;4920943;28;20238;-85
2023/12/14 03:35:43;;;;;;;3.80;3.50;;;;;;;;;;4902642;29;20247;-85
2023/12/14 03:38:09;;;;;;;3.27;2.90;;;;;;;;;;4922772;28;20219;-85
2023/12/14 03:40:37;;;;;;;3.80;3.50;;;;;;;;;;4926339;28;20227;-85
2023/12/14 03:43:03;;;;;;;3.57;3.10;;;;;;;;;;4919052;29;20231;-85
2023/12/14 03:45:28;;;;;;;3.87;3.57;;;;;;;;;;4927175;28;20237;-84
2023/12/14 03:47:54;;;;;;;4.47;3.50;;;;;;;;;;4924139;28;20624;-83
2023/12/14 03:50:22;;;;;;;4.20;3.83;;;;;;;;;;4906053;28;20234;-84
2023/12/14 03:52:52;;;;;;;3.77;3.47;;;;;;;;;;4922233;29;20684;-84
2023/12/14 03:55:17;;;;;;;5.90;3.30;;;;;;;;;;4915534;28;20229;-85
2023/12/14 03:57:45;;;;;;;3.80;3.50;;;;;;;;;;4935310;28;20219;-85
2023/12/14 04:04:02;;;;;;;2.90;2.70;;;;;;;;;;4949060;28;20925;-87
2023/12/14 04:06:30;;;;;;;3.40;3.10;;;;;;;;;;4952126;28;20306;-84
2023/12/14 04:08:58;;;;;;;2.93;2.73;;;;;;;;;;4900383;29;20218;-85
2023/12/14 04:11:24;;;;;;;2.47;2.33;;;;;;;;;;4933856;28;20254;-85
2023/12/14 04:13:53;;;;;;;3.60;2.90;;;;;;;;;;4906492;29;20238;-84
2023/12/14 04:16:22;;;;;;;3.67;3.37;;;;;;;;;;4907379;28;20229;-85
2023/12/14 04:18:48;;;;;;;3.63;3.33;;;;;;;;;;4922176;29;20229;-84
2023/12/14 04:21:14;;;;;;;3.77;3.33;;;;;;;;;;4923074;28;20226;-85
2023/12/14 04:23:39;;;;;;;3.40;3.10;;;;;;;;;;4917193;28;20219;-84
2023/12/14 04:26:09;;;;;;;3.40;3.10;;;;;;;;;;4938817;28;20222;-87
2023/12/14 04:28:37;;;;;;;3.60;3.30;;;;;;;;;;4924271;28;20302;-85
2023/12/14 04:31:03;;;;;;;3.27;3.00;;;;;;;;;;4921469;29;20226;-83
2023/12/14 04:33:28;;;;;;;3.97;3.57;;;;;;;;;;4943975;28;20300;-85
2023/12/14 04:35:54;;;;;;;3.47;3.13;;;;;;;;;;4922263;29;20234;-86
2023/12/14 04:38:19;;;;;;;5.40;3.57;;;;;;;;;;4938179;28;20223;-85
2023/12/14 04:40:45;;;;;;;3.53;3.23;;;;;;;;;;4918211;29;20223;-84
2023/12/14 04:43:10;;;;;;;3.07;2.83;;;;;;;;;;4948112;28;20291;-87
2023/12/14 04:45:38;;;;;;;2.87;2.70;;;;;;;;;;4923279;28;20230;-88
2023/12/14 04:48:04;;;;;;;2.83;2.63;;;;;;;;;;4923164;28;20278;-80
2023/12/14 04:50:32;;;;;;;2.40;2.20;;;;;;;;;;4927997;28;20211;-78
2023/12/14 04:52:58;;;;;;;2.80;2.60;;;;;;;;;;4940511;29;20274;-79
2023/12/14 04:55:23;;;;;;;2.80;2.57;;;;;;;;;;4956844;28;20227;-77
2023/12/14 04:57:49;;;;;;;3.10;2.50;;;;;;;;;;4934259;29;20223;-78
2023/12/14 05:00:17;;;;;;;3.03;2.67;;;;;;;;;;4942769;28;20292;-77
2023/12/14 05:02:47;;;;;;;2.33;2.13;;;;;;;;;;4931069;28;20231;-79
2023/12/14 05:05:13;;;;;;;2.40;2.20;;;;;;;;;;4959347;28;20234;-79
2023/12/14 05:07:41;;;;;;;2.03;1.93;;;;;;;;;;4917228;28;20219;-79
2023/12/14 05:10:07;;;;;;;2.37;2.17;;;;;;;;;;4937088;28;20243;-80
2023/12/14 05:12:32;;;;;;;2.50;2.30;;;;;;;;;;4911059;28;20294;-79
2023/12/14 05:14:58;;;;;;;2.47;2.27;;;;;;;;;;4946450;28;20289;-78
2023/12/14 05:17:23;;;;;;;3.13;2.67;;;;;;;;;;4929316;28;20828;-78
2023/12/14 05:19:49;;;;;;;2.50;2.30;;;;;;;;;;4932795;28;20218;-79
2023/12/14 05:22:15;;;;;;;2.97;2.27;;;;;;;;;;4930044;28;20304;-79
2023/12/14 05:24:40;;;;;;;2.63;2.43;;;;;;;;;;4944719;28;20231;-80
2023/12/14 05:27:08;;;;;;;2.60;2.40;;;;;;;;;;4934749;28;20222;-78
2023/12/14 05:29:36;;;;;;;2.30;2.10;;;;;;;;;;4911974;28;20796;-79
2023/12/14 05:32:02;;;;;;;2.40;2.17;;;;;;;;;;4920322;29;20214;-79
2023/12/14 05:34:27;;;;;;;2.53;2.33;;;;;;;;;;4927308;28;20803;-79
2023/12/14 05:36:55;;;;;;;2.10;2.00;;;;;;;;;;4931829;29;20682;-80
2023/12/14 05:39:21;;;;;;;4.17;2.80;;;;;;;;;;4943392;28;20322;-78
2023/12/14 05:41:46;;;;;;;2.93;2.70;;;;;;;;;;4934103;28;20230;-79
2023/12/14 05:44:13;;;;;;;2.97;2.77;;;;;;;;;;4946492;28;20241;-79
2023/12/14 05:46:40;;;;;;;2.97;2.60;;;;;;;;;;4928368;28;20250;-80
2023/12/14 05:49:06;;;;;;;2.47;2.27;;;;;;;;;;4930352;28;20317;-79
2023/12/14 05:51:32;;;;;;;2.70;2.50;;;;;;;;;;4928635;29;20227;-78
2023/12/14 05:54:00;;;;;;;2.87;2.40;;;;;;;;;;4945112;28;20313;-78
2023/12/14 05:56:29;;;;;;;2.60;2.40;;;;;;;;;;4934345;28;20226;-80
2023/12/14 05:58:54;;;;;;;2.10;2.00;;;;;;;;;;4932158;28;20281;-79
2023/12/14 06:01:25;;;;;;;2.63;2.43;;;;;;;;;;4951230;28;20412;-78
2023/12/14 06:03:50;;;;;;;2.60;2.40;;;;;;;;;;4920240;28;20235;-80
2023/12/14 06:06:16;;;;;;;2.73;2.53;;;;;;;;;;4931003;28;20250;-78
2023/12/14 06:08:44;;;;;;;2.87;2.67;;;;;;;;;;4914799;28;20289;-77
2023/12/14 06:11:09;;;;;;;4.50;3.03;;;;;;;;;;4929738;28;20221;-76
2023/12/14 06:13:35;;;;;;;2.97;2.77;;;;;;;;;;4958630;28;20215;-77
2023/12/14 06:16:01;;;;;;;3.00;2.73;;;;;;;;;;4912318;29;20281;-78
2023/12/14 06:18:28;;;;;;;2.70;2.50;;;;;;;;;;4910878;28;20230;-80
2023/12/14 06:20:56;;;;;;;3.00;2.80;;;;;;;;;;4941749;28;20314;-78
2023/12/14 06:23:26;;;;;;;3.50;3.10;;;;;;;;;;4942877;28;20239;-79
2023/12/14 06:25:54;;;;;;;2.70;2.50;;;;;;;;;;4940479;28;20460;-78
2023/12/14 06:28:23;;;;;;;3.30;3.00;;;;;;;;;;4930497;28;20233;-78
2023/12/14 06:30:51;;;;;;;2.70;2.50;;;;;;;;;;4944507;28;20219;-77
2023/12/14 06:33:19;;;;;;;3.03;2.70;;;;;;;;;;4953232;28;20220;-80
2023/12/14 06:35:44;;;;;;;2.93;2.73;;;;;;;;;;4964450;28;20325;-79
2023/12/14 06:38:12;;;;;;;2.60;2.40;;;;;;;;;;4962361;28;20222;-78
2023/12/14 06:40:38;;;;;;;3.50;3.20;;;;;;;;;;4926020;28;20243;-79
2023/12/14 06:43:05;;;;;;;3.50;3.20;;;;;;;;;;4928031;28;20242;-78
2023/12/14 06:45:30;;;;;;;2.80;2.60;;;;;;;;;;4951474;28;20223;-78
2023/12/14 06:47:56;;;;;;;3.00;2.80;;;;;;;;;;4980123;28;20298;-79
2023/12/14 06:50:26;;;;;;;3.90;3.27;;;;;;;;;;4935639;28;20242;-79
2023/12/14 06:52:51;;;;;;;3.10;2.70;;;;;;;;;;4964509;28;20277;-79
2023/12/14 06:55:20;;;;;;;2.73;2.53;;;;;;;;;;4945057;28;20680;-79
2023/12/14 06:57:48;;;;;;;3.03;2.73;;;;;;;;;;4963063;28;20238;-78
2023/12/14 07:00:14;;;;;;;3.57;2.77;;;;;;;;;;4921256;28;20237;-79
2023/12/14 07:02:39;;;;;;;2.77;2.57;;;;;;;;;;4958150;28;20310;-78
2023/12/14 07:05:08;;;;;;;3.23;2.50;;;;;;;;;;4963905;28;20238;-78
2023/12/14 07:07:33;;;;;;;3.13;2.57;;;;;;;;;;4956148;28;20215;-79
2023/12/14 07:10:03;;;;;;;2.90;2.70;;;;;;;;;;4954021;28;20233;-79
2023/12/14 07:12:31;;;;;;;3.97;2.80;;;;;;;;;;4936259;28;20230;-79
2023/12/14 07:14:57;;;;;;;3.70;2.80;;;;;;;;;;4961719;28;20223;-78
2023/12/14 07:17:24;;;;;;;4.17;3.23;;;;;;;;;;4914144;28;22085;-79
2023/12/14 07:19:51;;;;;;;3.27;2.97;;;;;;;;;;4952006;28;20230;-78
2023/12/14 07:22:16;;;;;;;3.30;3.00;;;;;;;;;;4934004;28;20903;-78
2023/12/14 07:24:42;;;;;;;3.20;2.90;;;;;;;;;;4946987;28;20235;-78
2023/12/14 07:27:07;;;;;;;4.13;3.73;;;;;;;;;;4942499;28;20227;-78
2023/12/14 07:29:33;;;;;;;4.17;3.00;;;;;;;;;;4934140;28;20238;-78
2023/12/14 07:31:58;;;;;;;3.17;2.70;;;;;;;;;;4922933;28;20238;-78
2023/12/14 07:34:28;;;;;;;2.87;2.67;;;;;;;;;;4935656;28;20341;-78
2023/12/14 07:36:57;;;;;;;4.20;3.07;;;;;;;;;;4944881;28;20228;-79
2023/12/14 07:39:26;;;;;;;3.33;2.83;;;;;;;;;;4933250;28;20231;-79
2023/12/14 07:41:51;;;;;;;3.13;2.93;;;;;;;;;;4954108;28;20635;-78
2023/12/14 07:44:20;;;;;;;2.90;2.70;;;;;;;;;;4951829;28;20844;-79
2023/12/14 07:46:45;;;;;;;3.83;3.20;;;;;;;;;;4922516;28;20241;-79
2023/12/14 07:49:11;;;;;;;3.80;3.17;;;;;;;;;;4950202;28;20227;-79
2023/12/14 07:51:39;;;;;;;3.30;3.00;;;;;;;;;;4939923;28;20226;-79
2023/12/14 07:54:07;;;;;;;3.33;3.03;;;;;;;;;;4945576;28;20225;-78
2023/12/14 07:56:33;;;;;;;3.50;3.20;;;;;;;;;;4951748;28;20241;-79
2023/12/14 07:59:01;;;;;;;3.67;2.80;;;;;;;;;;4955119;28;20219;-78
2023/12/14 08:01:30;;;;;;;3.30;3.00;;;;;;;;;;4943010;28;20231;-79
2023/12/14 08:03:56;;;;;;;3.67;3.37;;;;;;;;;;4918769;28;20235;-79
2023/12/14 08:06:23;;;;;;;3.70;3.40;;;;;;;;;;4923193;28;20229;-79
2023/12/14 08:08:51;;;;;;;4.37;3.70;;;;;;;;;;4947283;28;20265;-79
2023/12/14 08:11:17;;;;;;;3.57;3.27;;;;;;;;;;4924700;28;20288;-78
2023/12/14 08:13:42;;;;;;;5.23;3.83;;;;;;;;;;4930772;28;20249;-79
2023/12/14 08:16:08;;;;;;;6.70;3.97;;;;;;;;;;4938646;28;20229;-78
2023/12/14 08:18:34;;;;;;;5.23;4.10;;;;;;;;;;4912625;29;20271;-79
2023/12/14 08:20:59;;;;;;;4.90;4.43;;;;;;;;;;4933155;28;20223;-80
2023/12/14 08:23:27;;;;;;;4.87;4.37;;;;;;;;;;4952598;28;20245;-80
2023/12/14 08:25:57;;;;;;;6.97;4.33;;;;;;;;;;4931695;28;20218;-79
2023/12/14 08:28:27;;;;;;;4.50;4.10;;;;;;;;;;4918935;28;20289;-79
2023/12/14 08:30:57;;;;;;;5.50;4.20;;;;;;;;;;4943568;28;20228;-78
2023/12/14 08:33:23;;;;;;;5.27;4.17;;;;;;;;;;4950231;28;20249;-79
2023/12/14 08:35:50;;;;;;;6.00;5.00;;;;;;;;;;4941109;28;20215;-78
2023/12/14 08:38:17;;;;;;;4.73;4.23;;;;;;;;;;4914429;28;20230;-78
2023/12/14 08:40:43;;;;;;;6.27;4.60;;;;;;;;;;4918754;29;20676;-78
2023/12/14 08:43:13;;;;;;;5.00;4.50;;;;;;;;;;4935498;28;20219;-79
2023/12/14 08:45:41;;;;;;;5.30;4.80;;;;;;;;;;4959128;28;20716;-79
2023/12/14 08:48:06;;;;;;;5.37;4.97;;;;;;;;;;4943237;28;20653;-79
2023/12/14 08:50:32;;;;;;;4.70;4.23;;;;;;;;;;4919477;29;20227;-80
2023/12/14 08:53:00;;;;;;;5.23;4.73;;;;;;;;;;4937316;28;20234;-80
2023/12/14 08:55:28;;;;;;;5.03;4.63;;;;;;;;;;4921512;28;20223;-79
2023/12/14 08:57:56;;;;;;;5.83;4.57;;;;;;;;;;4922174;28;20277;-80
2023/12/14 09:00:24;;;;;;;4.47;4.07;;;;;;;;;;4950949;28;20330;-79
2023/12/14 09:02:52;;;;;;;5.40;4.20;;;;;;;;;;4935816;28;20227;-79
2023/12/14 09:05:20;;;;;;;4.80;4.40;;;;;;;;;;4950144;28;20223;-79
2023/12/14 09:07:45;;;;;;;8.17;5.47;;;;;;;;;;4917821;28;20244;-79
2023/12/14 09:10:13;;;;;;;5.10;4.70;;;;;;;;;;4912290;28;20707;-79
2023/12/14 09:12:41;;;;;;;5.10;4.60;;;;;;;;;;4902195;29;20250;-79
2023/12/14 09:15:09;;;;;;;5.23;4.33;;;;;;;;;;4939311;28;20218;-78
2023/12/14 09:17:37;;;;;;;5.10;4.20;;;;;;;;;;4938755;29;20273;-77
2023/12/14 09:20:06;;;;;;;5.30;4.80;;;;;;;;;;4956106;28;20294;-79
2023/12/14 09:22:31;;;;;;;6.10;4.90;;;;;;;;;;4921898;29;20231;-79
2023/12/14 09:24:59;;;;;;;5.10;4.70;;;;;;;;;;4921261;29;20226;-78
2023/12/14 09:27:25;;;;;;;5.70;5.07;;;;;;;;;;4951029;28;20227;-78
2023/12/14 09:29:50;;;;;;;5.13;4.67;;;;;;;;;;4928914;28;20310;-78
2023/12/14 09:32:20;;;;;;;4.80;4.30;;;;;;;;;;4946613;28;20206;-78
2023/12/14 09:34:49;;;;;;;5.23;4.07;;;;;;;;;;4919100;28;20235;-79
2023/12/14 09:37:14;;;;;;;5.00;4.40;;;;;;;;;;4969090;28;20215;-79
2023/12/14 09:39:40;;;;;;;7.10;4.40;;;;;;;;;;4925159;29;20222;-79
2023/12/14 09:42:10;;;;;;;5.17;4.57;;;;;;;;;;4948385;28;20219;-78
2023/12/14 09:44:38;;;;;;;5.83;3.90;;;;;;;;;;4924410;29;20630;-78
2023/12/14 09:47:04;;;;;;;4.63;4.23;;;;;;;;;;4937234;28;20310;-78
2023/12/14 09:49:32;;;;;;;5.13;4.20;;;;;;;;;;4904610;29;20234;-80
2023/12/14 09:51:58;;;;;;;5.53;3.90;;;;;;;;;;4947583;28;20235;-78
2023/12/14 09:54:26;;;;;;;5.63;4.40;;;;;;;;;;4940270;28;20242;-80
2023/12/14 09:56:52;;;;;;;5.60;4.73;;;;;;;;;;4923464;29;20277;-80
2023/12/14 09:59:20;;;;;;;4.53;4.13;;;;;;;;;;4924776;28;20238;-77
2023/12/14 10:01:46;;;;;;;5.23;4.73;;;;;;;;;;4918706;29;20307;-80
2023/12/14 10:04:17;;;;;;;4.67;4.20;;;;;;;;;;4949189;28;20231;-79
2023/12/14 10:06:46;;;;;;;8.03;4.50;;;;;;;;;;4916209;29;20704;-79
2023/12/14 10:09:18;;;;;;;4.53;4.13;;;;;;;;;;4940026;28;20226;-79
2023/12/14 10:11:48;;;;;;;5.43;3.90;;;;;;;;;;4916884;29;20231;-77
2023/12/14 10:14:27;;;;;;;5.97;4.13;;;;;;;;;;4952855;28;20246;-79
2023/12/14 10:16:52;;;;;;;4.43;4.03;;;;;;;;;;4936106;28;20238;-78
2023/12/14 10:19:18;;;;;;;4.30;3.90;;;;;;;;;;4933828;28;20223;-79
2023/12/14 10:21:45;;;;;;;4.37;3.97;;;;;;;;;;4963546;28;20265;-79
2023/12/14 10:24:11;;;;;;;6.83;4.03;;;;;;;;;;4938052;28;20262;-78
2023/12/14 10:26:39;;;;;;;4.10;3.80;;;;;;;;;;4914672;29;20250;-77
2023/12/14 10:29:07;;;;;;;4.77;4.33;;;;;;;;;;4942993;28;20241;-79
2023/12/14 10:31:37;;;;;;;5.40;4.10;;;;;;;;;;4931643;28;20916;-78
2023/12/14 10:34:06;;;;;;;4.93;4.00;;;;;;;;;;4920068;28;20239;-77
2023/12/14 10:36:32;;;;;;;4.93;4.17;;;;;;;;;;4923792;29;20322;-78
2023/12/14 10:39:00;;;;;;;5.43;4.80;;;;;;;;;;4934605;28;20260;-79
2023/12/14 10:41:31;;;;;;;5.73;4.80;;;;;;;;;;4946483;28;20254;-79
2023/12/14 10:43:57;;;;;;;7.80;5.40;;;;;;;;;;4920414;28;20652;-79
2023/12/14 10:46:25;;;;;;;4.63;3.70;;;;;;;;;;4919214;28;20227;-79
2023/12/14 10:48:51;;;;;;;7.77;4.50;;;;;;;;;;4921327;29;20341;-79
2023/12/14 10:51:23;;;;;;;6.00;4.37;;;;;;;;;;4938349;28;20219;-79
2023/12/14 10:53:53;;;;;;;5.73;3.87;;;;;;;;;;4933542;28;20238;-79
2023/12/14 10:56:18;;;;;;;5.03;3.50;;;;;;;;;;4949752;28;20315;-79
2023/12/14 10:58:53;;;;;;;4.63;4.17;;;;;;;;;;4924099;28;20276;-79
2023/12/14 11:01:23;;;;;;;4.57;3.83;;;;;;;;;;4950014;28;20595;-79
2023/12/14 11:03:52;;;;;;;5.13;3.97;;;;;;;;;;4925428;29;20242;-79
2023/12/14 11:06:33;;;;;;;3.97;3.57;;;;;;;;;;4921919;28;20223;-78
2023/12/14 11:09:06;;;;;;;4.07;3.67;;;;;;;;;;4934517;28;20239;-79
2023/12/14 11:11:56;;;;;;;4.00;3.60;;;;;;;;;;4921020;29;20231;-78
2023/12/14 11:14:26;;;;;;;5.07;4.00;;;;;;;;;;4945754;28;20230;-79
2023/12/14 11:16:56;;;;;;;4.37;3.60;;;;;;;;;;4924874;29;20760;-79
2023/12/14 11:19:21;;;;;;;4.07;3.67;;;;;;;;;;4934633;28;20227;-79
2023/12/14 11:22:05;;;;;;;4.23;3.83;;;;;;;;;;4951846;28;21056;-79
2023/12/14 11:24:30;;;;;;;3.20;3.00;;;;;;;;;;4932802;28;20234;-79
2023/12/14 11:26:56;;;;;;;4.77;3.23;;;;;;;;;;4925972;28;20265;-78
2023/12/14 11:29:23;;;;;;;3.03;2.73;;;;;;;;;;4967102;28;20235;-78
2023/12/14 11:31:51;;;;;;;5.47;3.70;;;;;;;;;;4957009;28;20226;-78
2023/12/14 11:34:16;;;;;;;4.23;3.83;;;;;;;;;;4937950;28;20234;-79
2023/12/14 11:36:42;;;;;;;3.67;3.37;;;;;;;;;;4938813;28;20251;-80
2023/12/14 11:39:09;;;;;;;4.93;3.80;;;;;;;;;;4955804;28;20227;-79
2023/12/14 11:41:35;;;;;;;4.17;3.83;;;;;;;;;;4955292;28;20227;-79
2023/12/14 11:44:01;;;;;;;4.30;3.90;;;;;;;;;;4955057;28;20245;-79
2023/12/14 11:46:26;;;;;;;7.97;4.47;;;;;;;;;;4936155;28;20570;-78
2023/12/14 11:48:52;;;;;;;4.53;3.87;;;;;;;;;;4918783;29;20239;-79
2023/12/14 11:51:20;;;;;;;4.57;4.17;;;;;;;;;;4964195;28;20220;-79
2023/12/14 11:53:46;;;;;;;6.17;5.10;;;;;;;;;;4931559;29;20247;-78
2023/12/14 11:56:12;;;;;;;7.33;5.23;;;;;;;;;;4921172;28;20251;-80
2023/12/14 11:58:40;;;;;;;7.73;5.10;;;;;;;;;;4922905;28;20222;-80
2023/12/14 12:01:16;;;;;;;5.40;4.90;;;;;;;;;;4946069;28;20231;-80
2023/12/14 12:03:44;;;;;;;5.27;4.77;;;;;;;;;;4934482;28;20239;-79
2023/12/14 12:06:30;;;;;;;7.23;5.20;;;;;;;;;;4922504;28;20259;-78
2023/12/14 12:08:55;;;;;;;5.70;4.60;;;;;;;;;;4924910;29;20241;-78
2023/12/14 12:11:22;;;;;;;7.97;5.10;;;;;;;;;;4936203;28;20221;-80
2023/12/14 12:13:57;;;;;;;4.93;4.47;;;;;;;;;;4904093;29;20231;-79
2023/12/14 12:16:22;;;;;;;5.90;4.50;;;;;;;;;;4933693;28;20826;-79
2023/12/14 12:18:50;;;;;;;5.03;4.63;;;;;;;;;;4921790;29;20230;-80
2023/12/14 12:21:16;;;;;;;6.10;4.77;;;;;;;;;;4944818;28;20291;-80
2023/12/14 12:23:41;;;;;;;5.10;4.30;;;;;;;;;;4930546;28;20787;-79
2023/12/14 12:26:07;;;;;;;7.03;4.70;;;;;;;;;;4908114;28;20238;-79
2023/12/14 12:28:38;;;;;;;6.40;5.10;;;;;;;;;;4940575;28;20235;-79
2023/12/14 12:31:06;;;;;;;4.70;4.30;;;;;;;;;;4936842;28;20235;-80
2023/12/14 12:33:37;;;;;;;5.10;4.33;;;;;;;;;;4926497;29;20289;-78
2023/12/14 12:36:03;;;;;;;12.33;4.40;;;;;;;;;;4916380;29;20249;-78
2023/12/14 12:38:31;;;;;;;5.30;4.50;;;;;;;;;;4954798;28;20238;-81
2023/12/14 12:40:59;;;;;;;4.80;4.40;;;;;;;;;;4922524;28;20234;-78
2023/12/14 12:43:25;;;;;;;6.13;5.20;;;;;;;;;;4936661;28;20237;-80
2023/12/14 12:45:50;;;;;;;6.47;5.87;;;;;;;;;;4954024;28;20226;-79
2023/12/14 12:48:18;;;;;;;6.17;5.53;;;;;;;;;;4928635;28;20231;-79
2023/12/14 12:50:44;;;;;;;5.80;4.90;;;;;;;;;;4914486;29;20230;-81
2023/12/14 12:53:14;;;;;;;8.53;5.40;;;;;;;;;;4948050;28;20212;-78
2023/12/14 12:55:40;;;;;;;5.97;5.10;;;;;;;;;;4946793;28;20227;-80
2023/12/14 12:58:06;;;;;;;7.30;5.17;;;;;;;;;;4947164;28;20262;-80
2023/12/14 13:00:35;;;;;;;5.63;4.93;;;;;;;;;;4938859;28;20302;-80
2023/12/14 13:03:07;;;;;;;5.47;4.57;;;;;;;;;;4937225;28;20681;-80
2023/12/14 13:05:37;;;;;;;6.73;4.80;;;;;;;;;;4933268;28;20313;-81
2023/12/14 13:08:02;;;;;;;5.67;4.43;;;;;;;;;;4925901;29;20230;-81
2023/12/14 13:10:28;;;;;;;4.20;3.67;;;;;;;;;;4907265;28;20222;-80
2023/12/14 13:12:58;;;;;;;5.03;4.33;;;;;;;;;;4920151;29;20226;-80
2023/12/14 13:15:26;;;;;;;5.33;4.83;;;;;;;;;;4938870;28;20239;-80
2023/12/14 13:17:52;;;;;;;4.47;4.03;;;;;;;;;;4937973;29;20491;-80
2023/12/14 13:20:20;;;;;;;5.47;4.43;;;;;;;;;;4918676;28;20307;-80
2023/12/14 13:22:46;;;;;;;4.40;4.00;;;;;;;;;;4908929;29;20242;-79
2023/12/14 13:25:11;;;;;;;5.13;4.53;;;;;;;;;;4941470;28;20227;-79
2023/12/14 13:27:37;;;;;;;5.17;4.20;;;;;;;;;;4929776;28;20222;-80
2023/12/14 13:30:04;;;;;;;5.07;3.50;;;;;;;;;;4918288;29;20235;-80
2023/12/14 13:32:30;;;;;;;4.93;4.07;;;;;;;;;;4937478;28;20226;-80
2023/12/14 13:34:55;;;;;;;4.80;4.40;;;;;;;;;;4909137;29;20223;-80
2023/12/14 13:37:21;;;;;;;5.03;3.87;;;;;;;;;;4917232;28;20216;-81
2023/12/14 13:39:48;;;;;;;5.73;3.77;;;;;;;;;;4916412;29;20236;-80
2023/12/14 13:42:15;;;;;;;5.13;4.47;;;;;;;;;;4958130;28;20581;-79
2023/12/14 13:44:41;;;;;;;5.30;4.17;;;;;;;;;;4942865;29;20250;-78
2023/12/14 13:47:09;;;;;;;5.87;4.33;;;;;;;;;;4935116;28;20223;-79
2023/12/14 13:49:34;;;;;;;3.90;3.60;;;;;;;;;;4895181;29;20223;-81
2023/12/14 13:52:00;;;;;;;4.70;3.90;;;;;;;;;;4947680;28;20223;-81
2023/12/14 13:54:25;;;;;;;4.70;3.73;;;;;;;;;;4936271;28;20684;-80
2023/12/14 13:56:52;;;;;;;5.30;4.53;;;;;;;;;;4935669;28;20661;-79
2023/12/14 13:59:18;;;;;;;4.77;4.37;;;;;;;;;;4918098;28;20223;-81
2023/12/14 14:01:50;;;;;;;4.30;3.73;;;;;;;;;;4945643;28;20283;-80
2023/12/14 14:04:19;;;;;;;4.57;3.67;;;;;;;;;;4965015;28;20291;-79
2023/12/14 14:06:47;;;;;;;5.27;3.63;;;;;;;;;;4922864;28;20775;-78
2023/12/14 14:09:14;;;;;;;4.87;4.17;;;;;;;;;;4920942;28;20285;-80
2023/12/14 14:11:47;;;;;;;46.87;12.07;;;;;;;;;;4950549;28;20232;-79
2023/12/14 14:14:13;;;;;;;7.50;3.83;;;;;;;;;;4934087;28;20293;-79
2023/12/14 14:16:38;;;;;;;19.53;9.70;;;;;;;;;;4936421;28;20226;-79
2023/12/14 14:19:04;;;;;;;11.33;7.50;;;;;;;;;;4930599;28;20219;-80
2023/12/14 14:21:30;;;;;;;9.73;5.80;;;;;;;;;;4950226;28;20267;-80
2023/12/14 14:23:58;;;;;;;6.60;4.60;;;;;;;;;;4944572;28;20223;-80
2023/12/14 14:26:23;;;;;;;4.50;4.10;;;;;;;;;;4942673;28;20384;-81
2023/12/14 14:28:59;;;;;;;5.63;5.03;;;;;;;;;;4954346;28;20243;-81
2023/12/14 14:31:29;;;;;;;8.03;6.03;;;;;;;;;;4939257;28;20223;-79
2023/12/14 14:33:59;;;;;;;18.67;14.83;;;;;;;;;;4957650;28;20309;-80
2023/12/14 14:36:25;;;;;;;16.43;14.70;;;;;;;;;;4949364;28;20231;-81
2023/12/14 14:38:54;;;;;;;22.70;16.77;;;;;;;;;;4969578;28;20223;-80
2023/12/14 14:41:20;;;;;;;13.83;10.57;;;;;;;;;;4908045;28;20227;-81
2023/12/14 14:43:51;;;;;;;9.73;7.77;;;;;;;;;;4943758;28;20223;-80
2023/12/14 14:46:19;;;;;;;6.80;6.20;;;;;;;;;;4909687;28;20219;-78
2023/12/14 14:48:49;;;;;;;7.63;6.00;;;;;;;;;;4935926;28;20211;-80